Karan — A8NB3 — position and weather

sailwx.info

Track history (hours):
 
Tides and Currents Weather Stations Pressure Air Temp Water Temp Dewpoint Dewpoint Depression Visibility Wind Speed Wind Dir Waves Ship Positions

Karan

Last reported at 2015-Jul-18 21:27 UTC. Time now 2015-Aug-03 15:11 UTC.
Position S 34°49' E 018°37'.
Warning: this ship's position is 15 days out of date.

Length 333 m; draft 21.4 m.

Type: Ship (hazmat cat B). MMSI: 636013451.

Date/timePositionNaut miles runAvg speedWind from/ knotsBaromVisibWave heightAir tempDewpointWater temp
2015-Jul-18 21:27S 34°49' E 018°37'5212.9
2015-Jul-18 17:26S 35°10' E 019°35'28412.7
2015-Jul-17 19:04S 34°31' E 025°18'38012.0
2015-Jul-16 11:29S 30°29' E 031°05'1313.7
2015-Jul-16 10:34S 30°17' E 031°11'1312.6
2015-Jul-16 09:33S 30°05' E 031°13'1110.9
2015-Jul-16 08:33S 29°54' E 031°15'3 2.5
2015-Jul-16 07:33S 29°52' E 031°12'4 4.2
2015-Jul-16 06:33S 29°50' E 031°17'2 2.1
2015-Jul-16 05:33S 29°48' E 031°17'1010.4
2015-Jul-16 04:33S 29°44' E 031°28'1111.1
2015-Jul-16 03:33S 29°40' E 031°40'1211.8
2015-Jul-16 02:33S 29°35' E 031°52'1211.4
2015-Jul-16 01:29S 29°30' E 032°05'1010.7
2015-Jul-16 00:33S 29°23' E 032°14'  
Track history (hours):
 
Tides and Currents Weather Stations Pressure Air Temp Water Temp Dewpoint Dewpoint Depression Visibility Wind Speed Wind Dir Waves Ship Positions

Karan

Last reported at 2015-Jul-18 21:27 UTC. Time now 2015-Aug-03 15:11 UTC.
Position S 34°49' E 018°37'.
Warning: this ship's position is 15 days out of date.

Length 333 m; draft 21.4 m.

Type: Ship (hazmat cat B). MMSI: 636013451.

Date/timePositionNaut miles runAvg speedWind from/ knotsBaromVisibWave heightAir tempDewpointWater temp
2015-Jul-18 21:27S 34°49' E 018°37'5212.9
2015-Jul-18 17:26S 35°10' E 019°35'28412.7
2015-Jul-17 19:04S 34°31' E 025°18'38012.0
2015-Jul-16 11:29S 30°29' E 031°05'1313.7
2015-Jul-16 10:34S 30°17' E 031°11'1312.6
2015-Jul-16 09:33S 30°05' E 031°13'1110.9
2015-Jul-16 08:33S 29°54' E 031°15'3 2.5
2015-Jul-16 07:33S 29°52' E 031°12'4 4.2
2015-Jul-16 06:33S 29°50' E 031°17'2 2.1
2015-Jul-16 05:33S 29°48' E 031°17'1010.4
2015-Jul-16 04:33S 29°44' E 031°28'1111.1
2015-Jul-16 03:33S 29°40' E 031°40'1211.8
2015-Jul-16 02:33S 29°35' E 031°52'1211.4
2015-Jul-16 01:29S 29°30' E 032°05'1010.7
2015-Jul-16 00:33S 29°23' E 032°14'  

Dump ship's entire track history